createdAt,value
2022-11-15T01:09:11.979Z,0
2022-11-15T03:08:29.030Z,0
2022-11-15T05:07:46.124Z,0
2022-11-15T05:39:18.161Z,0
2022-11-15T07:38:35.251Z,1305
2022-11-15T08:18:37.187Z,2445
2022-11-15T08:21:36.634Z,2329
2022-11-15T08:24:01.770Z,2357
2022-11-15T08:26:26.887Z,2272
2022-11-15T08:28:52.001Z,2313
2022-11-15T08:31:18.101Z,2582
2022-11-15T08:33:44.264Z,2819
2022-11-15T08:36:10.397Z,3264
2022-11-15T08:38:36.368Z,3088
2022-11-15T08:41:02.600Z,3232
2022-11-15T08:43:28.689Z,3417
2022-11-15T08:45:54.730Z,3320
2022-11-15T08:48:20.802Z,3304
2022-11-15T08:53:13.045Z,3373
2022-11-15T08:55:39.131Z,3168
2022-11-15T08:58:05.142Z,2425
2022-11-15T09:00:30.260Z,2072
2022-11-15T09:02:56.356Z,1903
2022-11-15T09:05:22.465Z,1847
2022-11-15T09:07:48.558Z,1919
2022-11-15T09:10:14.690Z,2064
2022-11-15T09:12:40.739Z,2497
2022-11-15T09:15:06.952Z,2762
2022-11-15T09:17:33.074Z,3067
2022-11-15T09:19:58.284Z,3312
2022-11-15T09:22:23.308Z,3517
2022-11-15T09:24:49.446Z,3365
2022-11-15T09:27:15.594Z,3260
2022-11-15T09:29:41.487Z,3429
2022-11-15T09:32:07.776Z,3822
2022-11-15T09:34:33.835Z,4023
2022-11-15T09:36:59.759Z,4276
2022-11-15T09:39:26.039Z,4485
2022-11-15T09:41:52.056Z,4300
2022-11-15T09:44:18.114Z,4096
2022-11-15T09:46:44.284Z,4015
2022-11-15T09:49:10.306Z,4252
2022-11-15T09:51:36.514Z,4328
2022-11-15T09:54:01.589Z,4481
2022-11-15T09:56:27.656Z,3662
2022-11-15T09:58:53.703Z,3666
2022-11-15T10:01:19.735Z,3096
2022-11-15T10:03:45.985Z,2887
2022-11-15T10:06:12.055Z,2987
2022-11-15T10:08:38.144Z,2766
2022-11-15T10:11:03.292Z,2726
2022-11-15T10:13:28.388Z,2734
2022-11-15T10:15:53.502Z,2706
2022-11-15T10:18:18.598Z,2814
2022-11-15T10:20:44.647Z,3529
2022-11-15T10:23:10.821Z,4200
2022-11-15T10:25:36.780Z,4814
2022-11-15T10:28:02.984Z,5228
2022-11-15T10:30:29.148Z,5252
2022-11-15T10:32:55.246Z,5208
2022-11-15T10:35:21.129Z,5079
2022-11-15T10:37:47.224Z,5658
2022-11-15T10:40:13.456Z,6220
2022-11-15T10:42:39.483Z,6023
2022-11-15T10:45:05.547Z,5939
2022-11-15T10:47:31.675Z,6011
2022-11-15T10:49:56.795Z,6015
2022-11-15T10:52:22.899Z,5621
2022-11-15T10:54:48.929Z,5385
2022-11-15T10:57:15.001Z,5256
2022-11-15T10:59:41.199Z,4999
2022-11-15T11:02:07.227Z,5043
2022-11-15T11:04:33.333Z,5256
2022-11-15T11:06:58.544Z,5481
2022-11-15T11:09:23.617Z,5340
2022-11-15T11:11:49.625Z,5786
2022-11-15T11:14:15.784Z,5766
2022-11-15T11:16:41.895Z,5778
2022-11-15T11:19:07.984Z,5882
2022-11-15T11:21:34.017Z,5617
2022-11-15T11:24:00.104Z,5232
2022-11-15T11:26:26.343Z,4867
2022-11-15T11:28:52.325Z,5180
2022-11-15T11:31:18.391Z,5493
2022-11-15T11:33:44.616Z,5120
2022-11-15T11:36:10.661Z,5385
2022-11-15T11:38:36.732Z,5497
2022-11-15T11:41:02.904Z,5236
2022-11-15T11:43:27.883Z,5192
2022-11-15T11:45:54.077Z,5232
2022-11-15T11:48:20.069Z,5336
2022-11-15T11:50:46.171Z,6087
2022-11-15T11:53:12.329Z,5830
2022-11-15T11:55:38.415Z,5919
2022-11-15T11:58:03.543Z,5280
2022-11-15T12:00:28.726Z,4907
2022-11-15T12:02:54.872Z,4670
2022-11-15T12:05:20.812Z,4517
2022-11-15T12:07:46.898Z,5091
2022-11-15T12:10:13.056Z,6027
2022-11-15T12:12:39.202Z,5923
2022-11-15T12:15:05.164Z,5340
2022-11-15T12:17:31.331Z,5834
2022-11-15T12:19:57.527Z,6276
2022-11-15T12:22:23.457Z,6802
2022-11-15T12:24:49.554Z,5806
2022-11-15T12:27:15.680Z,5513
2022-11-15T12:29:41.892Z,5389
2022-11-15T12:32:06.850Z,5276
2022-11-15T12:34:32.992Z,4268
2022-11-15T12:36:59.148Z,3818
2022-11-15T12:39:25.338Z,4051
2022-11-15T12:41:51.244Z,4240
2022-11-15T12:44:17.322Z,4156
2022-11-15T12:46:43.426Z,3614
2022-11-15T12:49:08.698Z,3361
2022-11-15T12:51:33.826Z,3264
2022-11-15T12:53:59.770Z,3477
2022-11-15T12:56:25.859Z,3569
2022-11-15T12:58:51.959Z,3320
2022-11-15T13:01:18.056Z,3272
2022-11-15T13:03:44.154Z,3425
2022-11-15T13:06:10.245Z,3606
2022-11-15T13:08:36.343Z,3666
2022-11-15T13:11:02.430Z,3517
2022-11-15T13:13:28.527Z,3505
2022-11-15T13:15:54.626Z,3481
2022-11-15T13:18:20.724Z,3461
2022-11-15T13:20:46.834Z,3409
2022-11-15T13:23:11.915Z,3248
2022-11-15T13:25:38.013Z,3168
2022-11-15T13:28:04.249Z,3228
2022-11-15T13:30:30.208Z,3353
2022-11-15T13:32:56.316Z,3333
2022-11-15T13:35:22.415Z,3300
2022-11-15T13:37:48.499Z,3011
2022-11-15T13:40:13.650Z,2999
2022-11-15T13:42:38.746Z,3120
2022-11-15T13:45:03.866Z,3132
2022-11-15T13:47:28.970Z,3116
2022-11-15T13:49:54.139Z,3168
2022-11-15T13:52:19.217Z,3067
2022-11-15T13:54:44.433Z,2975
2022-11-15T13:57:09.582Z,2859
2022-11-15T13:59:35.714Z,2750
2022-11-15T14:02:01.618Z,2606
2022-11-15T14:04:27.722Z,2469
2022-11-15T14:06:53.824Z,2256
2022-11-15T14:09:19.912Z,2052
2022-11-15T14:11:46.006Z,1911
2022-11-15T14:14:12.106Z,1991
2022-11-15T14:16:38.284Z,2292
2022-11-15T14:19:04.413Z,2204
2022-11-15T14:21:30.398Z,1738
2022-11-15T14:23:56.502Z,1361
2022-11-15T14:26:22.598Z,1168
2022-11-15T14:28:47.697Z,1132
2022-11-15T14:31:13.834Z,1040
2022-11-15T14:33:39.921Z,995
2022-11-15T14:36:05.981Z,1052
2022-11-15T14:38:32.083Z,1100
2022-11-15T14:40:58.171Z,1052
2022-11-15T14:43:24.283Z,883
2022-11-15T14:45:49.383Z,775
2022-11-15T14:48:14.688Z,658
2022-11-15T14:50:39.622Z,542
2022-11-15T14:53:04.745Z,489
2022-11-15T14:55:29.865Z,505
2022-11-15T14:57:54.973Z,530
2022-11-15T15:00:21.075Z,566
2022-11-15T15:02:47.230Z,594
2022-11-15T15:05:13.272Z,578
2022-11-15T15:07:39.367Z,586
2022-11-15T15:10:05.452Z,558
2022-11-15T15:12:31.544Z,505
2022-11-15T15:14:57.632Z,489
2022-11-15T15:17:23.740Z,429
2022-11-15T15:19:49.833Z,353
2022-11-15T15:22:15.922Z,301
2022-11-15T15:24:42.168Z,269
2022-11-15T15:27:08.148Z,244
2022-11-15T15:29:33.217Z,216
2022-11-15T15:31:59.428Z,180
2022-11-15T15:34:25.417Z,144
2022-11-15T15:36:51.525Z,116
2022-11-15T15:39:17.600Z,100
2022-11-15T15:41:43.805Z,92
2022-11-15T15:44:09.797Z,68
2022-11-15T15:46:34.914Z,48
2022-11-15T15:49:00.047Z,36
2022-11-15T15:51:26.137Z,28
2022-11-15T15:53:51.247Z,24
2022-11-15T15:56:16.358Z,16
2022-11-15T15:58:42.457Z,12
2022-11-15T16:01:08.548Z,8
2022-11-15T16:03:34.636Z,4
2022-11-15T16:06:00.738Z,4
2022-11-15T16:08:26.962Z,0
2022-11-15T16:10:52.936Z,0
2022-11-15T16:13:19.022Z,0
2022-11-15T16:15:45.121Z,0
2022-11-15T16:18:11.220Z,0
2022-11-15T16:20:37.307Z,0
2022-11-15T16:23:03.602Z,0
2022-11-15T16:25:29.553Z,0
2022-11-15T16:27:54.632Z,0
2022-11-15T16:30:19.741Z,0
2022-11-15T16:32:45.835Z,0
2022-11-15T16:35:11.951Z,0
2022-11-15T16:37:38.011Z,0
2022-11-15T16:40:04.109Z,0
2022-11-15T16:42:30.317Z,0
2022-11-15T16:44:55.449Z,0
2022-11-15T16:47:20.450Z,0
2022-11-15T16:49:46.597Z,0
2022-11-15T16:52:13.070Z,0
2022-11-15T16:54:38.768Z,0
2022-11-15T16:57:04.852Z,0
2022-11-15T16:59:30.926Z,0
2022-11-15T17:01:57.045Z,0
2022-11-15T17:04:23.123Z,0
2022-11-15T17:06:49.225Z,0
2022-11-15T17:09:15.310Z,0
2022-11-15T17:11:41.408Z,0
2022-11-15T17:14:07.500Z,0
2022-11-15T17:16:33.654Z,0
2022-11-15T17:18:58.712Z,0
2022-11-15T17:21:24.841Z,0
2022-11-15T17:23:50.903Z,0
2022-11-15T17:26:16.997Z,0
2022-11-15T17:28:43.096Z,0
2022-11-15T17:31:09.222Z,0
2022-11-15T17:33:35.276Z,0
2022-11-15T17:36:00.416Z,0
2022-11-15T17:38:25.509Z,0
2022-11-15T17:40:50.647Z,0
2022-11-15T17:43:15.757Z,0
2022-11-15T17:45:40.866Z,0
2022-11-15T17:48:05.977Z,0
2022-11-15T17:50:32.087Z,0
2022-11-15T17:52:58.189Z,0
2022-11-15T17:55:24.271Z,0
2022-11-15T17:57:50.373Z,0
2022-11-15T18:00:16.471Z,0
2022-11-15T18:02:42.563Z,0
2022-11-15T18:05:08.682Z,0
2022-11-15T18:07:34.742Z,0
2022-11-15T18:10:00.839Z,0
2022-11-15T18:12:26.948Z,0
2022-11-15T18:14:53.047Z,0
2022-11-15T18:17:19.150Z,0
2022-11-15T18:19:44.239Z,0
2022-11-15T18:22:10.536Z,0
2022-11-15T18:24:36.591Z,0
2022-11-15T18:27:02.729Z,0
2022-11-15T18:29:28.885Z,0
2022-11-15T18:31:54.838Z,0
2022-11-15T18:34:21.042Z,0
2022-11-15T18:36:46.063Z,0
2022-11-15T18:39:11.251Z,0
2022-11-15T18:41:36.428Z,0
2022-11-15T18:44:01.453Z,0
2022-11-15T18:46:27.563Z,0
2022-11-15T18:48:53.660Z,0
2022-11-15T18:51:19.729Z,0
2022-11-15T18:53:45.923Z,0
2022-11-15T18:56:11.956Z,0
2022-11-15T18:58:38.091Z,0
2022-11-15T19:01:04.254Z,0
2022-11-15T19:03:30.187Z,0
2022-11-15T19:05:56.327Z,0
2022-11-15T19:08:22.421Z,0
2022-11-15T19:10:48.523Z,0
2022-11-15T19:13:14.608Z,0
2022-11-15T19:15:39.717Z,0
2022-11-15T19:18:05.868Z,0
2022-11-15T19:20:31.938Z,0
2022-11-15T19:22:57.842Z,0
2022-11-15T19:25:24.140Z,0
2022-11-15T19:27:50.190Z,0
2022-11-15T19:30:16.268Z,0
2022-11-15T19:32:41.395Z,0
2022-11-15T19:35:06.346Z,0
2022-11-15T19:37:32.605Z,0
2022-11-15T19:39:57.781Z,0
2022-11-15T19:42:22.795Z,0
2022-11-15T19:44:48.854Z,0
2022-11-15T19:47:15.058Z,0
2022-11-15T19:49:41.103Z,0
2022-11-15T19:52:07.305Z,0
2022-11-15T19:54:33.325Z,0
2022-11-15T19:56:59.347Z,0
2022-11-15T19:59:25.461Z,0
2022-11-15T20:01:51.619Z,0
2022-11-15T20:04:17.711Z,0
2022-11-15T20:06:43.799Z,0
2022-11-15T20:09:09.729Z,0
2022-11-15T20:11:35.995Z,0
2022-11-15T20:14:01.201Z,0
2022-11-15T20:16:27.228Z,0
2022-11-15T20:18:53.423Z,0
2022-11-15T20:21:19.333Z,0
2022-11-15T20:23:45.537Z,0
2022-11-15T20:26:11.611Z,0
2022-11-15T20:28:37.659Z,0
2022-11-15T20:31:02.770Z,0
2022-11-15T20:33:27.749Z,0
2022-11-15T20:35:54.048Z,0
2022-11-15T20:38:20.106Z,0
2022-11-15T20:40:46.228Z,0
2022-11-15T20:43:12.186Z,0
2022-11-15T20:45:38.374Z,0
2022-11-15T20:48:04.457Z,0
2022-11-15T20:50:30.429Z,0
2022-11-15T20:52:56.637Z,0
2022-11-15T20:55:22.803Z,0
2022-11-15T20:57:48.725Z,0
2022-11-15T21:00:14.800Z,0
2022-11-15T21:02:40.921Z,0
2022-11-15T21:05:06.066Z,0
2022-11-15T21:07:32.268Z,0
2022-11-15T21:09:58.378Z,0
2022-11-15T21:12:24.409Z,0
2022-11-15T21:14:50.407Z,0
2022-11-15T21:17:16.632Z,0
2022-11-15T21:19:42.775Z,0
2022-11-15T21:22:07.881Z,0
2022-11-15T21:24:32.945Z,0
2022-11-15T21:26:58.118Z,0
2022-11-15T21:29:23.052Z,0
2022-11-15T21:31:49.161Z,0
2022-11-15T21:34:15.443Z,0
2022-11-15T21:36:41.482Z,0
2022-11-15T21:39:07.430Z,0
2022-11-15T21:41:33.676Z,0
2022-11-15T21:43:59.791Z,0
2022-11-15T21:46:25.845Z,0
2022-11-15T21:48:51.799Z,0
2022-11-15T21:51:18.073Z,0
2022-11-15T21:53:44.155Z,0
2022-11-15T21:56:10.090Z,0
2022-11-15T21:58:36.306Z,0
2022-11-15T22:01:01.408Z,0
2022-11-15T22:03:27.404Z,0
2022-11-15T22:05:53.606Z,0
2022-11-15T22:08:19.739Z,0
2022-11-15T22:10:45.821Z,0
2022-11-15T22:13:11.869Z,0
2022-11-15T22:15:37.931Z,0
2022-11-15T22:18:03.177Z,0
2022-11-15T22:20:28.220Z,0
2022-11-15T22:22:54.191Z,0
2022-11-15T22:25:20.395Z,0
2022-11-15T22:27:46.501Z,0
2022-11-15T22:30:12.514Z,0
2022-11-15T22:32:38.567Z,0
2022-11-15T22:35:04.665Z,0
2022-11-15T22:37:30.905Z,0
2022-11-15T22:39:56.983Z,0
2022-11-15T22:42:23.106Z,0
2022-11-15T22:44:49.210Z,0
2022-11-15T22:47:15.247Z,0
2022-11-15T22:49:41.384Z,0
2022-11-15T22:52:06.548Z,0
2022-11-15T22:54:32.452Z,0
2022-11-15T22:56:58.725Z,0
2022-11-15T22:59:24.749Z,0
2022-11-15T23:01:50.737Z,0
2022-11-15T23:04:16.830Z,0
2022-11-15T23:06:43.083Z,0
2022-11-15T23:09:08.200Z,0
2022-11-15T23:11:33.308Z,0
2022-11-15T23:13:58.447Z,0
2022-11-15T23:16:23.663Z,0
2022-11-15T23:18:49.676Z,0
2022-11-15T23:21:15.766Z,0
2022-11-15T23:23:41.870Z,0
2022-11-15T23:26:07.784Z,0
2022-11-15T23:28:33.874Z,0
2022-11-15T23:30:59.973Z,0
2022-11-15T23:33:26.066Z,0
2022-11-15T23:35:52.164Z,0
2022-11-15T23:38:18.263Z,0
2022-11-15T23:40:44.339Z,0
2022-11-15T23:43:10.449Z,0
2022-11-15T23:45:36.542Z,0
2022-11-15T23:48:01.656Z,0
2022-11-15T23:50:27.743Z,0
2022-11-15T23:52:53.828Z,0
2022-11-15T23:55:19.945Z,0
2022-11-15T23:57:46.041Z,0
